createdAt,value
2022-11-26T00:00:45.412Z,4.40
2022-11-26T00:03:14.659Z,4.20
2022-11-26T00:05:45.485Z,3.70
2022-11-26T00:08:23.278Z,3.70
2022-11-26T00:10:52.875Z,3.95
2022-11-26T00:13:23.436Z,4.05
2022-11-26T00:15:53.864Z,4.13
2022-11-26T00:18:23.495Z,3.50
2022-11-26T00:20:54.624Z,4.32
2022-11-26T00:23:25.607Z,4.45
2022-11-26T00:25:56.192Z,3.80
2022-11-26T00:28:31.542Z,3.80
2022-11-26T00:31:02.945Z,3.90
2022-11-26T00:33:31.565Z,3.70
2022-11-26T00:36:03.507Z,4.30
2022-11-26T00:38:32.468Z,4.25
2022-11-26T00:41:00.472Z,4.55
2022-11-26T00:43:28.403Z,4.20
2022-11-26T00:45:56.507Z,4.10
2022-11-26T00:48:25.872Z,3.90
2022-11-26T00:50:53.906Z,3.90
2022-11-26T00:53:23.744Z,4.40
2022-11-26T00:55:52.041Z,4.30
2022-11-26T00:58:26.116Z,3.83
2022-11-26T01:00:54.945Z,3.83
2022-11-26T01:03:23.275Z,4.38
2022-11-26T01:05:55.511Z,3.70
2022-11-26T01:08:29.919Z,4.05
2022-11-26T01:10:58.024Z,4.60
2022-11-26T01:13:26.462Z,4.18
2022-11-26T01:15:56.100Z,3.90
2022-11-26T01:18:24.859Z,4.50
2022-11-26T01:20:54.193Z,3.90
2022-11-26T01:23:22.210Z,4.07
2022-11-26T01:25:50.188Z,3.60
2022-11-26T01:28:19.844Z,4.97
2022-11-26T01:30:48.224Z,4.00
2022-11-26T01:33:16.119Z,3.67
2022-11-26T01:35:44.041Z,4.20
2022-11-26T01:38:15.150Z,3.85
2022-11-26T01:40:55.628Z,3.95
2022-11-26T01:43:28.217Z,3.70
2022-11-26T01:45:57.152Z,4.20
2022-11-26T01:48:29.120Z,3.95
2022-11-26T01:51:03.739Z,4.32
2022-11-26T01:53:55.919Z,4.30
2022-11-26T01:56:31.823Z,4.50
2022-11-26T01:59:04.715Z,4.60
2022-11-26T02:01:34.018Z,4.45
2022-11-26T02:04:08.048Z,4.70
2022-11-26T02:06:36.708Z,4.10
2022-11-26T02:09:08.256Z,4.00
2022-11-26T02:11:36.667Z,4.45
2022-11-26T02:14:06.185Z,4.93
2022-11-26T02:16:52.300Z,4.00
2022-11-26T02:19:30.971Z,4.82
2022-11-26T02:22:02.815Z,4.40
2022-11-26T02:24:44.280Z,3.97
2022-11-26T02:27:23.499Z,4.40
2022-11-26T02:30:01.070Z,5.05
2022-11-26T02:32:31.743Z,4.68
2022-11-26T02:35:02.035Z,4.60
2022-11-26T02:37:33.045Z,4.90
2022-11-26T02:40:01.377Z,4.57
2022-11-26T02:42:30.754Z,5.50
2022-11-26T02:45:03.313Z,4.85
2022-11-26T02:47:33.679Z,4.80
2022-11-26T02:50:04.424Z,5.10
2022-11-26T02:52:33.891Z,4.57
2022-11-26T02:55:03.405Z,4.57
2022-11-26T02:57:33.830Z,5.20
2022-11-26T03:00:04.864Z,5.00
2022-11-26T03:02:35.701Z,4.68
2022-11-26T03:05:04.300Z,5.60
2022-11-26T03:07:34.293Z,5.40
2022-11-26T03:10:03.526Z,5.63
2022-11-26T03:12:31.826Z,5.50
2022-11-26T03:15:00.049Z,4.80
2022-11-26T03:17:29.639Z,6.15
2022-11-26T03:19:57.938Z,5.55
2022-11-26T03:22:26.183Z,5.50
2022-11-26T03:24:54.512Z,6.23
2022-11-26T03:27:22.740Z,6.22
2022-11-26T03:29:50.980Z,5.90
2022-11-26T03:32:19.216Z,5.80
2022-11-26T03:34:48.862Z,5.90
2022-11-26T03:37:17.116Z,5.47
2022-11-26T03:39:45.393Z,6.20
2022-11-26T03:42:13.797Z,6.30
2022-11-26T03:44:42.012Z,6.20
2022-11-26T03:47:10.324Z,6.07
2022-11-26T03:49:38.591Z,5.72
2022-11-26T03:52:08.260Z,5.68
2022-11-26T03:54:36.705Z,5.90
2022-11-26T03:57:05.187Z,6.10
2022-11-26T03:59:33.496Z,6.00
2022-11-26T04:02:01.731Z,6.22
2022-11-26T04:04:30.027Z,6.47
2022-11-26T04:06:58.381Z,6.40
2022-11-26T04:09:28.024Z,6.60
2022-11-26T04:11:56.319Z,6.28
2022-11-26T04:14:24.581Z,6.25
2022-11-26T04:16:52.865Z,6.50
2022-11-26T04:19:21.151Z,6.60
2022-11-26T04:21:49.429Z,6.38
2022-11-26T04:24:17.689Z,6.30
2022-11-26T04:26:47.239Z,6.80
2022-11-26T04:29:15.630Z,6.57
2022-11-26T04:31:43.957Z,6.13
2022-11-26T04:34:12.268Z,7.10
2022-11-26T04:36:40.502Z,6.00
2022-11-26T04:39:08.753Z,6.60
2022-11-26T04:41:36.976Z,6.50
2022-11-26T04:44:06.775Z,6.10
2022-11-26T04:46:35.064Z,6.77
2022-11-26T04:49:03.334Z,6.95
2022-11-26T04:51:31.639Z,6.70
2022-11-26T04:54:02.939Z,7.55
2022-11-26T04:56:32.084Z,6.50
2022-11-26T04:59:00.403Z,6.80
2022-11-26T05:01:30.081Z,6.50
2022-11-26T05:03:58.407Z,7.05
2022-11-26T05:06:26.714Z,7.57
2022-11-26T05:08:55.066Z,7.40
2022-11-26T05:11:23.363Z,6.88
2022-11-26T05:13:51.575Z,7.25
2022-11-26T05:16:19.955Z,7.70
2022-11-26T05:18:49.523Z,6.78
2022-11-26T05:21:17.813Z,7.65
2022-11-26T05:23:46.102Z,8.02
2022-11-26T05:26:14.421Z,8.20
2022-11-26T05:28:42.679Z,8.02
2022-11-26T05:31:11.924Z,8.20
2022-11-26T05:33:40.319Z,8.40
2022-11-26T05:36:10.344Z,9.27
2022-11-26T05:38:38.651Z,9.32
2022-11-26T05:41:06.865Z,8.98
2022-11-26T05:43:35.100Z,9.43
2022-11-26T05:46:06.192Z,9.35
2022-11-26T05:48:34.900Z,9.90
2022-11-26T05:51:03.571Z,9.82
2022-11-26T05:53:33.199Z,9.55
2022-11-26T05:56:01.412Z,9.43
2022-11-26T05:58:29.744Z,10.23
2022-11-26T06:00:58.047Z,10.63
2022-11-26T06:03:26.390Z,9.80
2022-11-26T06:05:54.819Z,10.63
2022-11-26T06:08:23.165Z,10.07
2022-11-26T06:10:52.772Z,10.38
2022-11-26T06:13:21.041Z,9.45
2022-11-26T06:15:49.402Z,9.82
2022-11-26T06:18:18.120Z,9.70
2022-11-26T06:20:46.749Z,9.63
2022-11-26T06:23:15.037Z,9.80
2022-11-26T06:25:43.832Z,10.82
2022-11-26T06:28:13.476Z,10.70
2022-11-26T06:30:41.745Z,10.95
2022-11-26T06:33:10.023Z,9.40
2022-11-26T06:35:38.329Z,10.63
2022-11-26T06:38:06.540Z,10.48
2022-11-26T06:40:34.780Z,9.80
2022-11-26T06:43:03.144Z,9.20
2022-11-26T06:45:32.751Z,10.03
2022-11-26T06:48:01.116Z,9.88
2022-11-26T06:50:29.437Z,10.40
2022-11-26T06:52:57.712Z,10.15
2022-11-26T06:55:26.010Z,9.80
2022-11-26T06:57:54.274Z,9.70
2022-11-26T07:00:23.045Z,10.30
2022-11-26T07:02:52.724Z,10.30
2022-11-26T07:05:21.056Z,9.63
2022-11-26T07:07:49.367Z,9.73
2022-11-26T07:10:17.847Z,10.32
2022-11-26T07:12:46.112Z,10.27
2022-11-26T07:15:14.362Z,10.10
2022-11-26T07:17:42.721Z,10.98
2022-11-26T07:20:12.944Z,11.75
2022-11-26T07:22:41.178Z,11.57
2022-11-26T07:25:12.793Z,11.23
2022-11-26T07:27:42.004Z,11.20
2022-11-26T07:30:10.949Z,10.43
2022-11-26T07:32:39.310Z,10.60
2022-11-26T07:35:07.982Z,10.23
2022-11-26T07:37:37.701Z,10.48
2022-11-26T07:40:06.511Z,9.93
2022-11-26T07:42:35.177Z,10.00
2022-11-26T07:45:04.578Z,9.45
2022-11-26T07:47:32.855Z,10.45
2022-11-26T07:50:01.299Z,11.00
2022-11-26T07:52:29.605Z,10.15
2022-11-26T07:54:59.192Z,10.35
2022-11-26T07:57:27.600Z,9.65
2022-11-26T07:59:55.870Z,10.23
2022-11-26T08:02:24.109Z,10.10
2022-11-26T08:04:52.387Z,10.10
2022-11-26T08:07:26.119Z,9.73
2022-11-26T08:09:58.785Z,10.02
2022-11-26T08:12:27.254Z,10.35
2022-11-26T08:14:55.782Z,9.68
2022-11-26T08:17:24.091Z,8.85
2022-11-26T08:19:52.367Z,9.40
2022-11-26T08:22:20.655Z,9.70
2022-11-26T08:24:48.907Z,9.03
2022-11-26T08:27:18.571Z,10.27
2022-11-26T08:29:46.790Z,9.60
2022-11-26T08:32:15.184Z,9.88
2022-11-26T08:34:43.448Z,10.10
2022-11-26T08:37:11.675Z,9.25
2022-11-26T08:39:40.075Z,9.50
2022-11-26T08:42:08.342Z,9.93
2022-11-26T08:44:38.259Z,9.85
2022-11-26T08:47:09.820Z,10.20
2022-11-26T08:49:38.178Z,10.05
2022-11-26T08:52:06.689Z,9.90
2022-11-26T08:54:34.967Z,9.55
2022-11-26T08:57:03.287Z,10.15
2022-11-26T08:59:31.559Z,9.63
2022-11-26T09:02:01.186Z,9.50
2022-11-26T09:04:29.422Z,10.35
2022-11-26T09:06:57.665Z,10.10
2022-11-26T09:09:25.959Z,10.38
2022-11-26T09:11:55.095Z,10.20
2022-11-26T09:14:24.987Z,10.98
2022-11-26T09:16:53.388Z,10.48
2022-11-26T09:19:23.074Z,10.98
2022-11-26T09:21:51.373Z,9.73
2022-11-26T09:24:19.820Z,9.85
2022-11-26T09:26:48.944Z,10.05
2022-11-26T09:29:18.883Z,9.95
2022-11-26T09:32:15.874Z,9.32
2022-11-26T09:34:37.253Z,9.30
2022-11-26T09:37:05.758Z,9.83
2022-11-26T09:39:34.042Z,9.00
2022-11-26T09:42:06.204Z,9.40
2022-11-26T09:44:42.736Z,8.55
2022-11-26T09:47:13.699Z,9.65
2022-11-26T09:49:48.354Z,9.57
2022-11-26T09:52:19.721Z,9.63
2022-11-26T09:54:48.747Z,9.57
2022-11-26T09:57:21.427Z,9.35
2022-11-26T09:59:51.482Z,10.18
2022-11-26T10:02:19.952Z,9.57
2022-11-26T10:04:49.735Z,9.20
2022-11-26T10:07:25.823Z,10.25
2022-11-26T10:09:57.604Z,9.82
2022-11-26T10:12:38.262Z,9.07
2022-11-26T10:15:20.012Z,9.63
2022-11-26T10:17:52.757Z,9.40
2022-11-26T10:20:47.501Z,9.00
2022-11-26T10:23:18.888Z,8.68
2022-11-26T10:25:48.961Z,9.40
2022-11-26T10:28:21.039Z,9.85
2022-11-26T10:30:53.600Z,9.65
2022-11-26T10:33:22.276Z,9.13
2022-11-26T10:35:51.972Z,9.50
2022-11-26T10:38:20.270Z,9.88
2022-11-26T10:40:48.564Z,10.13
2022-11-26T10:43:20.376Z,9.80
2022-11-26T10:45:49.808Z,9.57
2022-11-26T10:48:26.278Z,9.27
2022-11-26T10:51:12.326Z,9.30
2022-11-26T10:53:51.271Z,9.32
2022-11-26T10:56:20.535Z,8.50
2022-11-26T10:58:49.768Z,8.07
2022-11-26T11:01:18.353Z,8.83
2022-11-26T11:06:40.632Z,8.50
2022-11-26T11:09:24.801Z,8.93
2022-11-26T11:12:09.938Z,8.80
2022-11-26T11:14:43.017Z,9.00
2022-11-26T11:17:20.409Z,8.32
2022-11-26T11:19:48.656Z,8.60
2022-11-26T11:22:20.303Z,9.27
2022-11-26T11:24:50.151Z,8.45
2022-11-26T11:27:25.032Z,8.50
2022-11-26T11:29:53.406Z,9.00
2022-11-26T11:32:38.174Z,8.10
2022-11-26T11:35:25.744Z,8.10
2022-11-26T11:37:54.818Z,8.55
2022-11-26T11:40:27.585Z,9.05
2022-11-26T11:42:57.377Z,8.50
2022-11-26T11:45:30.108Z,8.65
2022-11-26T11:48:00.002Z,9.60
2022-11-26T11:50:32.049Z,7.88
2022-11-26T11:53:24.127Z,8.70
2022-11-26T11:56:02.721Z,8.40
2022-11-26T11:58:46.291Z,9.05
2022-11-26T12:01:22.060Z,8.80
2022-11-26T12:03:55.748Z,8.70
2022-11-26T12:06:31.990Z,9.48
2022-11-26T12:09:04.483Z,8.52
2022-11-26T12:11:39.786Z,8.87
2022-11-26T12:14:10.264Z,9.65
2022-11-26T12:16:41.594Z,9.35
2022-11-26T12:19:13.291Z,9.70
2022-11-26T12:21:46.320Z,8.95
2022-11-26T12:24:17.100Z,9.38
2022-11-26T12:26:49.700Z,9.20
2022-11-26T12:29:21.720Z,10.00
2022-11-26T12:31:51.634Z,8.57
2022-11-26T12:34:23.795Z,8.57
2022-11-26T12:36:54.099Z,8.50
2022-11-26T12:39:30.029Z,8.68
2022-11-26T12:42:02.221Z,9.10
2022-11-26T12:44:33.115Z,8.40
2022-11-26T12:47:08.927Z,8.23
2022-11-26T12:49:43.838Z,9.07
2022-11-26T12:52:19.820Z,8.85
2022-11-26T12:54:50.359Z,8.52
2022-11-26T12:57:24.260Z,8.00
2022-11-26T12:59:56.714Z,9.02
2022-11-26T13:02:26.318Z,8.50
2022-11-26T13:04:54.953Z,8.25
2022-11-26T13:07:31.431Z,8.48
2022-11-26T13:10:05.483Z,8.05
2022-11-26T13:12:40.199Z,8.40
2022-11-26T13:15:13.164Z,8.57
2022-11-26T13:17:43.487Z,8.35
2022-11-26T13:20:17.871Z,7.72
2022-11-26T13:22:54.456Z,8.33
2022-11-26T13:25:32.113Z,7.50
2022-11-26T13:28:05.208Z,8.27
2022-11-26T13:30:39.692Z,7.80
2022-11-26T13:33:17.051Z,7.68
2022-11-26T13:35:50.967Z,8.43
2022-11-26T13:38:21.796Z,7.95
2022-11-26T13:41:08.922Z,8.05
2022-11-26T13:43:56.069Z,8.00
2022-11-26T13:46:25.625Z,8.13
2022-11-26T13:48:57.417Z,7.90
2022-11-26T13:51:28.782Z,7.40
2022-11-26T13:53:58.759Z,7.97
2022-11-26T13:56:32.073Z,7.10
2022-11-26T13:59:03.201Z,7.70
2022-11-26T14:01:33.109Z,7.30
2022-11-26T14:04:01.439Z,7.88
2022-11-26T14:06:29.669Z,7.38
2022-11-26T14:08:58.467Z,6.82
2022-11-26T14:11:45.552Z,7.22
2022-11-26T14:14:38.153Z,6.88
2022-11-26T14:17:18.355Z,6.47
2022-11-26T14:19:59.643Z,6.50
2022-11-26T14:22:29.026Z,6.80
2022-11-26T14:24:59.273Z,6.03
2022-11-26T14:27:29.674Z,6.88
2022-11-26T14:30:00.442Z,6.73
2022-11-26T14:32:31.716Z,6.90
2022-11-26T14:35:00.074Z,6.40
2022-11-26T14:37:29.206Z,6.00
2022-11-26T14:40:01.194Z,6.30
2022-11-26T14:42:29.951Z,5.43
2022-11-26T14:45:05.375Z,5.68
2022-11-26T14:47:35.396Z,6.13
2022-11-26T14:50:06.428Z,5.32
2022-11-26T14:52:36.169Z,5.10
2022-11-26T14:55:07.579Z,5.75
2022-11-26T14:57:40.631Z,5.45
2022-11-26T15:00:21.201Z,5.10
2022-11-26T15:02:50.941Z,5.72
2022-11-26T15:05:20.623Z,5.40
2022-11-26T15:07:58.106Z,5.10
2022-11-26T15:10:26.698Z,5.10
2022-11-26T15:12:55.170Z,5.30
2022-11-26T15:15:24.787Z,5.50
2022-11-26T15:17:56.567Z,5.10
2022-11-26T15:20:25.423Z,5.20
2022-11-26T15:22:54.280Z,5.28
2022-11-26T15:25:23.548Z,5.25
2022-11-26T15:27:56.025Z,4.72
2022-11-26T15:30:25.728Z,4.82
2022-11-26T15:33:03.095Z,5.50
2022-11-26T15:35:33.189Z,5.22
2022-11-26T15:38:01.499Z,5.50
2022-11-26T15:40:32.481Z,6.30
2022-11-26T15:43:02.400Z,5.60
2022-11-26T15:45:35.023Z,6.10
2022-11-26T15:48:05.326Z,6.35
2022-11-26T15:50:34.405Z,5.93
2022-11-26T15:53:03.711Z,5.90
2022-11-26T15:55:33.901Z,5.70
2022-11-26T15:58:04.556Z,5.20
2022-11-26T16:00:34.235Z,5.80
2022-11-26T16:03:02.467Z,6.38
2022-11-26T16:05:35.080Z,6.00
2022-11-26T16:08:04.362Z,5.80
2022-11-26T16:10:35.642Z,6.57
2022-11-26T16:13:08.911Z,6.20
2022-11-26T16:15:40.161Z,6.00
2022-11-26T16:18:15.823Z,5.85
2022-11-26T16:20:45.594Z,6.50
2022-11-26T16:23:21.083Z,6.20
2022-11-26T16:26:04.231Z,6.63
2022-11-26T16:28:32.505Z,6.78
2022-11-26T16:31:00.861Z,6.15
2022-11-26T16:33:29.291Z,6.45
2022-11-26T16:35:58.933Z,5.95
2022-11-26T16:38:27.936Z,6.22
2022-11-26T16:40:56.437Z,6.20
2022-11-26T16:43:25.547Z,6.18
2022-11-26T16:45:55.616Z,6.40
2022-11-26T16:48:25.580Z,6.30
2022-11-26T16:50:53.968Z,6.30
2022-11-26T16:53:23.801Z,6.20
2022-11-26T16:55:52.612Z,6.30
2022-11-26T16:58:25.986Z,6.28
2022-11-26T17:00:54.328Z,6.32
2022-11-26T17:03:23.431Z,6.07
2022-11-26T17:05:53.196Z,5.77
2022-11-26T17:08:21.640Z,6.28
2022-11-26T17:10:51.882Z,5.83
2022-11-26T17:13:20.636Z,6.20
2022-11-26T17:15:49.256Z,6.60
2022-11-26T17:18:20.100Z,6.07
2022-11-26T17:20:48.388Z,6.05
2022-11-26T17:23:16.724Z,6.55
2022-11-26T17:25:45.619Z,7.20
2022-11-26T17:28:16.309Z,7.20
2022-11-26T17:30:45.133Z,7.18
2022-11-26T17:33:13.588Z,8.00
2022-11-26T17:35:41.887Z,6.80
2022-11-26T17:38:28.001Z,7.76
2022-11-26T17:40:56.218Z,6.20
2022-11-26T17:43:25.812Z,6.03
2022-11-26T17:45:54.118Z,6.27
2022-11-26T17:48:26.576Z,5.90
2022-11-26T17:50:55.046Z,6.43
2022-11-26T17:53:23.318Z,5.85
2022-11-26T17:55:51.549Z,5.30
2022-11-26T17:58:19.849Z,5.60
2022-11-26T18:00:49.483Z,5.20
2022-11-26T18:03:17.729Z,4.65
2022-11-26T18:05:45.955Z,4.88
2022-11-26T18:08:14.316Z,4.80
2022-11-26T18:10:42.742Z,5.00
2022-11-26T18:13:11.006Z,5.43
2022-11-26T18:15:39.298Z,5.30
2022-11-26T18:18:09.067Z,5.28
2022-11-26T18:20:37.343Z,5.20
2022-11-26T18:23:05.859Z,4.60
2022-11-26T18:25:35.430Z,5.10
2022-11-26T18:28:03.674Z,4.25
2022-11-26T18:30:31.982Z,4.82
2022-11-26T18:33:00.278Z,5.20
2022-11-26T18:35:29.872Z,5.20
2022-11-26T18:37:58.108Z,5.37
2022-11-26T18:40:26.370Z,5.70
2022-11-26T18:42:54.647Z,5.70
2022-11-26T18:45:22.899Z,4.68
2022-11-26T18:47:51.136Z,5.13
2022-11-26T18:50:19.532Z,5.45
2022-11-26T18:52:49.205Z,5.60
2022-11-26T18:55:17.505Z,4.95
2022-11-26T18:57:45.751Z,5.90
2022-11-26T19:00:15.668Z,5.70
2022-11-26T19:02:43.989Z,5.70
2022-11-26T19:05:12.459Z,5.72
2022-11-26T19:07:40.844Z,6.70
2022-11-26T19:10:11.354Z,6.50
2022-11-26T19:12:39.607Z,5.88
2022-11-26T19:15:08.365Z,5.97
2022-11-26T19:17:36.662Z,6.80
2022-11-26T19:20:05.250Z,6.15
2022-11-26T19:22:33.495Z,5.95
2022-11-26T19:25:01.711Z,6.32
2022-11-26T19:27:31.320Z,6.22
2022-11-26T19:29:59.567Z,6.25
2022-11-26T19:32:28.052Z,5.90
2022-11-26T19:34:58.162Z,6.38
2022-11-26T19:37:29.579Z,6.75
2022-11-26T19:39:57.850Z,6.60
2022-11-26T19:42:26.177Z,7.07
2022-11-26T19:44:55.860Z,7.30
2022-11-26T19:47:24.114Z,6.68
2022-11-26T19:49:52.384Z,7.10
2022-11-26T19:52:20.665Z,7.30
2022-11-26T19:54:48.892Z,6.82
2022-11-26T19:57:17.150Z,6.70
2022-11-26T19:59:45.427Z,7.03
2022-11-26T20:02:15.584Z,6.47
2022-11-26T20:04:43.909Z,6.90
2022-11-26T20:07:12.421Z,6.82
2022-11-26T20:09:41.022Z,6.72
2022-11-26T20:12:09.756Z,6.38
2022-11-26T20:14:38.010Z,6.50
2022-11-26T20:17:06.401Z,6.70
2022-11-26T20:19:37.343Z,7.10
2022-11-26T20:22:05.730Z,6.82
2022-11-26T20:24:33.989Z,6.55
2022-11-26T20:27:02.218Z,7.15
2022-11-26T20:29:30.515Z,7.45
2022-11-26T20:31:58.834Z,6.40
2022-11-26T20:34:27.822Z,6.20
2022-11-26T20:36:57.549Z,6.90
2022-11-26T20:39:25.883Z,6.50
2022-11-26T20:41:54.390Z,6.70
2022-11-26T20:44:23.102Z,7.27
2022-11-26T20:46:51.423Z,8.07
2022-11-26T20:49:19.726Z,7.17
2022-11-26T20:51:48.040Z,7.22
2022-11-26T20:54:17.669Z,7.55
2022-11-26T20:56:46.024Z,7.13
2022-11-26T20:59:14.284Z,6.90
2022-11-26T21:01:42.734Z,6.93
2022-11-26T21:04:11.131Z,6.97
2022-11-26T21:06:39.377Z,6.03
2022-11-26T21:09:07.833Z,6.30
2022-11-26T21:11:37.439Z,7.10
2022-11-26T21:14:08.488Z,6.80
2022-11-26T21:16:38.998Z,7.10
2022-11-26T21:19:07.305Z,7.05
2022-11-26T21:21:35.547Z,7.90
2022-11-26T21:24:04.725Z,6.95
2022-11-26T21:26:32.991Z,7.05
2022-11-26T21:29:03.409Z,6.70
2022-11-26T21:31:32.393Z,6.05
2022-11-26T21:34:02.022Z,6.80
2022-11-26T21:36:30.939Z,7.13
2022-11-26T21:38:59.231Z,7.25
2022-11-26T21:41:27.887Z,6.70
2022-11-26T21:43:56.174Z,6.80
2022-11-26T21:46:27.019Z,7.10
2022-11-26T21:48:55.739Z,6.50
2022-11-26T21:51:24.568Z,6.82
2022-11-26T21:53:52.885Z,7.18
2022-11-26T21:56:21.928Z,6.57
2022-11-26T21:58:50.389Z,6.40
2022-11-26T22:01:20.118Z,6.90
2022-11-26T22:03:50.865Z,7.00
2022-11-26T22:06:20.055Z,6.50
2022-11-26T22:08:48.673Z,6.80
2022-11-26T22:11:18.148Z,6.80
2022-11-26T22:13:46.688Z,7.00
2022-11-26T22:16:15.874Z,6.90
2022-11-26T22:18:45.127Z,6.97
2022-11-26T22:21:15.594Z,6.72
2022-11-26T22:23:44.104Z,6.80
2022-11-26T22:26:12.748Z,6.93
2022-11-26T22:28:41.299Z,7.50
2022-11-26T22:31:10.793Z,9.30
2022-11-26T22:33:39.303Z,11.90
2022-11-26T22:36:07.944Z,10.70
2022-11-26T22:38:39.324Z,8.95
2022-11-26T22:41:08.704Z,8.43
2022-11-26T22:43:37.036Z,8.35
2022-11-26T22:46:05.970Z,8.40
2022-11-26T22:48:34.624Z,7.90
2022-11-26T22:51:02.956Z,7.93
2022-11-26T22:53:33.229Z,7.32
2022-11-26T22:56:03.882Z,6.95
2022-11-26T22:58:32.802Z,7.00
2022-11-26T23:01:04.132Z,6.80
2022-11-26T23:03:33.508Z,6.13
2022-11-26T23:06:04.064Z,7.18
2022-11-26T23:08:32.772Z,6.35
2022-11-26T23:11:01.019Z,6.53
2022-11-26T23:13:30.655Z,7.00
2022-11-26T23:15:59.036Z,6.53
2022-11-26T23:18:27.312Z,6.20
2022-11-26T23:21:03.341Z,5.75
2022-11-26T23:23:31.856Z,6.40
2022-11-26T23:26:00.431Z,6.65
2022-11-26T23:28:28.661Z,5.90
2022-11-26T23:31:02.730Z,6.00
2022-11-26T23:33:31.402Z,6.68
2022-11-26T23:35:59.707Z,6.00
2022-11-26T23:38:27.917Z,5.80
2022-11-26T23:40:56.407Z,5.53
2022-11-26T23:43:25.023Z,6.00
2022-11-26T23:45:53.361Z,6.32
2022-11-26T23:48:23.014Z,5.97
2022-11-26T23:50:51.243Z,5.90
2022-11-26T23:53:19.460Z,5.30
2022-11-26T23:55:48.833Z,6.00
2022-11-26T23:58:17.323Z,5.78
